sensor_id;sensor_type;location;lat;lon;timestamp;P1;durP1;ratioP1;P2;durP2;ratioP2
8327;SDS011;4201;48.754;8.864;2023-08-06T00:00:54;6.80;;;4.30;;
8327;SDS011;4201;48.754;8.864;2023-08-06T00:03:20;5.87;;;4.13;;
8327;SDS011;4201;48.754;8.864;2023-08-06T00:05:46;4.93;;;3.63;;
8327;SDS011;4201;48.754;8.864;2023-08-06T00:08:12;7.13;;;4.20;;
8327;SDS011;4201;48.754;8.864;2023-08-06T00:10:39;6.97;;;3.40;;
8327;SDS011;4201;48.754;8.864;2023-08-06T00:13:05;5.53;;;3.87;;
8327;SDS011;4201;48.754;8.864;2023-08-06T00:15:31;4.83;;;4.00;;
8327;SDS011;4201;48.754;8.864;2023-08-06T00:17:59;4.80;;;3.63;;
8327;SDS011;4201;48.754;8.864;2023-08-06T00:20:25;5.50;;;3.80;;
8327;SDS011;4201;48.754;8.864;2023-08-06T00:22:51;5.83;;;4.20;;
8327;SDS011;4201;48.754;8.864;2023-08-06T00:25:18;5.60;;;4.43;;
8327;SDS011;4201;48.754;8.864;2023-08-06T00:27:44;8.00;;;4.27;;
8327;SDS011;4201;48.754;8.864;2023-08-06T00:30:10;10.07;;;3.77;;
8327;SDS011;4201;48.754;8.864;2023-08-06T00:32:37;5.10;;;4.40;;
8327;SDS011;4201;48.754;8.864;2023-08-06T00:35:05;7.10;;;4.43;;
8327;SDS011;4201;48.754;8.864;2023-08-06T00:37:31;5.40;;;4.77;;
8327;SDS011;4201;48.754;8.864;2023-08-06T00:39:57;4.80;;;4.23;;
8327;SDS011;4201;48.754;8.864;2023-08-06T00:42:24;6.23;;;4.30;;
8327;SDS011;4201;48.754;8.864;2023-08-06T00:44:50;7.77;;;4.30;;
8327;SDS011;4201;48.754;8.864;2023-08-06T00:47:16;5.80;;;3.73;;
8327;SDS011;4201;48.754;8.864;2023-08-06T00:49:42;6.10;;;4.83;;
8327;SDS011;4201;48.754;8.864;2023-08-06T00:52:10;7.00;;;4.63;;
8327;SDS011;4201;48.754;8.864;2023-08-06T00:54:38;6.77;;;4.50;;
8327;SDS011;4201;48.754;8.864;2023-08-06T00:57:04;6.37;;;4.10;;
8327;SDS011;4201;48.754;8.864;2023-08-06T00:59:30;8.70;;;3.80;;
8327;SDS011;4201;48.754;8.864;2023-08-06T01:01:57;8.70;;;4.77;;
8327;SDS011;4201;48.754;8.864;2023-08-06T01:04:23;6.20;;;5.07;;
8327;SDS011;4201;48.754;8.864;2023-08-06T01:06:52;6.73;;;4.40;;
8327;SDS011;4201;48.754;8.864;2023-08-06T01:09:25;4.83;;;4.30;;
8327;SDS011;4201;48.754;8.864;2023-08-06T01:11:55;5.07;;;4.20;;
8327;SDS011;4201;48.754;8.864;2023-08-06T01:14:25;7.73;;;4.80;;
8327;SDS011;4201;48.754;8.864;2023-08-06T01:16:53;5.50;;;4.40;;
8327;SDS011;4201;48.754;8.864;2023-08-06T01:19:20;6.10;;;4.37;;
8327;SDS011;4201;48.754;8.864;2023-08-06T01:21:48;7.97;;;4.50;;
8327;SDS011;4201;48.754;8.864;2023-08-06T01:24:15;7.33;;;4.60;;
8327;SDS011;4201;48.754;8.864;2023-08-06T01:26:42;9.63;;;5.40;;
8327;SDS011;4201;48.754;8.864;2023-08-06T01:29:10;6.07;;;4.80;;
8327;SDS011;4201;48.754;8.864;2023-08-06T01:31:38;6.30;;;5.10;;
8327;SDS011;4201;48.754;8.864;2023-08-06T01:34:05;6.83;;;5.00;;
8327;SDS011;4201;48.754;8.864;2023-08-06T01:36:32;5.80;;;4.90;;
8327;SDS011;4201;48.754;8.864;2023-08-06T01:38:59;7.30;;;5.23;;
8327;SDS011;4201;48.754;8.864;2023-08-06T01:41:26;6.50;;;5.30;;
8327;SDS011;4201;48.754;8.864;2023-08-06T01:43:52;6.17;;;4.90;;
8327;SDS011;4201;48.754;8.864;2023-08-06T01:46:18;10.07;;;5.40;;
8327;SDS011;4201;48.754;8.864;2023-08-06T01:48:44;9.27;;;6.00;;
8327;SDS011;4201;48.754;8.864;2023-08-06T01:51:10;5.83;;;4.63;;
8327;SDS011;4201;48.754;8.864;2023-08-06T01:53:37;6.00;;;4.70;;
8327;SDS011;4201;48.754;8.864;2023-08-06T01:56:04;6.33;;;5.30;;
8327;SDS011;4201;48.754;8.864;2023-08-06T01:58:31;6.50;;;5.17;;
8327;SDS011;4201;48.754;8.864;2023-08-06T02:00:57;7.83;;;4.63;;
8327;SDS011;4201;48.754;8.864;2023-08-06T02:03:23;5.13;;;4.57;;
8327;SDS011;4201;48.754;8.864;2023-08-06T02:05:50;7.40;;;4.70;;
8327;SDS011;4201;48.754;8.864;2023-08-06T02:08:16;7.17;;;4.13;;
8327;SDS011;4201;48.754;8.864;2023-08-06T02:10:42;9.03;;;4.47;;
8327;SDS011;4201;48.754;8.864;2023-08-06T02:13:10;8.20;;;4.20;;
8327;SDS011;4201;48.754;8.864;2023-08-06T02:15:41;8.63;;;4.07;;
8327;SDS011;4201;48.754;8.864;2023-08-06T02:18:07;6.23;;;4.27;;
8327;SDS011;4201;48.754;8.864;2023-08-06T02:20:34;6.43;;;4.63;;
8327;SDS011;4201;48.754;8.864;2023-08-06T02:23:00;11.63;;;4.90;;
8327;SDS011;4201;48.754;8.864;2023-08-06T02:25:26;6.37;;;4.40;;
8327;SDS011;4201;48.754;8.864;2023-08-06T02:27:52;8.70;;;5.30;;
8327;SDS011;4201;48.754;8.864;2023-08-06T02:30:20;9.13;;;4.63;;
8327;SDS011;4201;48.754;8.864;2023-08-06T02:32:46;5.47;;;4.00;;
8327;SDS011;4201;48.754;8.864;2023-08-06T02:35:12;8.30;;;4.57;;
8327;SDS011;4201;48.754;8.864;2023-08-06T02:37:39;6.83;;;3.80;;
8327;SDS011;4201;48.754;8.864;2023-08-06T02:40:05;5.90;;;3.93;;
8327;SDS011;4201;48.754;8.864;2023-08-06T02:42:32;7.00;;;3.80;;
8327;SDS011;4201;48.754;8.864;2023-08-06T02:44:58;7.67;;;4.43;;
8327;SDS011;4201;48.754;8.864;2023-08-06T02:47:25;9.07;;;4.57;;
8327;SDS011;4201;48.754;8.864;2023-08-06T02:49:52;6.10;;;4.30;;
8327;SDS011;4201;48.754;8.864;2023-08-06T02:52:18;7.90;;;4.60;;
8327;SDS011;4201;48.754;8.864;2023-08-06T02:54:44;8.17;;;4.50;;
8327;SDS011;4201;48.754;8.864;2023-08-06T02:57:10;9.27;;;4.53;;
8327;SDS011;4201;48.754;8.864;2023-08-06T02:59:37;6.67;;;3.83;;
8327;SDS011;4201;48.754;8.864;2023-08-06T03:02:03;6.97;;;3.50;;
8327;SDS011;4201;48.754;8.864;2023-08-06T03:04:31;5.40;;;4.27;;
8327;SDS011;4201;48.754;8.864;2023-08-06T03:06:57;8.43;;;3.90;;
8327;SDS011;4201;48.754;8.864;2023-08-06T03:09:23;6.60;;;4.40;;
8327;SDS011;4201;48.754;8.864;2023-08-06T03:11:48;7.60;;;3.80;;
8327;SDS011;4201;48.754;8.864;2023-08-06T03:14:15;6.13;;;4.47;;
8327;SDS011;4201;48.754;8.864;2023-08-06T03:16:41;7.80;;;3.90;;
8327;SDS011;4201;48.754;8.864;2023-08-06T03:19:07;6.70;;;3.90;;
8327;SDS011;4201;48.754;8.864;2023-08-06T03:21:35;6.97;;;4.13;;
8327;SDS011;4201;48.754;8.864;2023-08-06T03:24:01;4.97;;;3.70;;
8327;SDS011;4201;48.754;8.864;2023-08-06T03:26:27;8.37;;;4.00;;
8327;SDS011;4201;48.754;8.864;2023-08-06T03:28:53;10.30;;;4.17;;
8327;SDS011;4201;48.754;8.864;2023-08-06T03:31:20;8.70;;;3.70;;
8327;SDS011;4201;48.754;8.864;2023-08-06T03:33:46;6.83;;;4.60;;
8327;SDS011;4201;48.754;8.864;2023-08-06T03:36:12;5.70;;;4.00;;
8327;SDS011;4201;48.754;8.864;2023-08-06T03:38:40;6.30;;;3.97;;
8327;SDS011;4201;48.754;8.864;2023-08-06T03:41:06;8.17;;;3.60;;
8327;SDS011;4201;48.754;8.864;2023-08-06T03:43:32;4.87;;;3.10;;
8327;SDS011;4201;48.754;8.864;2023-08-06T03:45:58;5.63;;;3.10;;
8327;SDS011;4201;48.754;8.864;2023-08-06T03:48:25;5.90;;;3.30;;
8327;SDS011;4201;48.754;8.864;2023-08-06T03:50:51;6.93;;;3.67;;
8327;SDS011;4201;48.754;8.864;2023-08-06T03:53:17;17.63;;;3.57;;
8327;SDS011;4201;48.754;8.864;2023-08-06T03:55:45;6.50;;;3.50;;
8327;SDS011;4201;48.754;8.864;2023-08-06T03:58:11;7.30;;;3.30;;
8327;SDS011;4201;48.754;8.864;2023-08-06T04:00:37;9.27;;;4.00;;
8327;SDS011;4201;48.754;8.864;2023-08-06T04:03:03;4.13;;;2.87;;
8327;SDS011;4201;48.754;8.864;2023-08-06T04:05:30;6.00;;;3.10;;
8327;SDS011;4201;48.754;8.864;2023-08-06T04:07:57;4.50;;;2.97;;
8327;SDS011;4201;48.754;8.864;2023-08-06T04:10:23;6.00;;;2.77;;
8327;SDS011;4201;48.754;8.864;2023-08-06T04:12:51;6.20;;;2.90;;
8327;SDS011;4201;48.754;8.864;2023-08-06T04:15:17;5.97;;;2.60;;
8327;SDS011;4201;48.754;8.864;2023-08-06T04:17:43;6.27;;;3.00;;
8327;SDS011;4201;48.754;8.864;2023-08-06T04:20:09;6.20;;;3.43;;
8327;SDS011;4201;48.754;8.864;2023-08-06T04:22:36;6.20;;;3.47;;
8327;SDS011;4201;48.754;8.864;2023-08-06T04:25:02;7.83;;;3.03;;
8327;SDS011;4201;48.754;8.864;2023-08-06T04:27:28;5.63;;;3.27;;
8327;SDS011;4201;48.754;8.864;2023-08-06T04:29:56;7.23;;;3.07;;
8327;SDS011;4201;48.754;8.864;2023-08-06T04:32:22;8.63;;;3.73;;
8327;SDS011;4201;48.754;8.864;2023-08-06T04:34:51;7.00;;;2.80;;
8327;SDS011;4201;48.754;8.864;2023-08-06T04:37:17;6.80;;;3.20;;
8327;SDS011;4201;48.754;8.864;2023-08-06T04:39:44;5.83;;;3.83;;
8327;SDS011;4201;48.754;8.864;2023-08-06T04:42:10;7.10;;;3.27;;
8327;SDS011;4201;48.754;8.864;2023-08-06T04:44:36;4.67;;;2.87;;
8327;SDS011;4201;48.754;8.864;2023-08-06T04:47:04;6.70;;;2.77;;
8327;SDS011;4201;48.754;8.864;2023-08-06T04:49:30;6.60;;;2.43;;
8327;SDS011;4201;48.754;8.864;2023-08-06T04:51:56;4.20;;;2.73;;
8327;SDS011;4201;48.754;8.864;2023-08-06T04:54:23;4.87;;;3.17;;
8327;SDS011;4201;48.754;8.864;2023-08-06T04:56:49;3.23;;;2.17;;
8327;SDS011;4201;48.754;8.864;2023-08-06T04:59:15;5.37;;;2.10;;
8327;SDS011;4201;48.754;8.864;2023-08-06T05:01:53;4.13;;;1.63;;
8327;SDS011;4201;48.754;8.864;2023-08-06T05:04:21;3.10;;;1.30;;
8327;SDS011;4201;48.754;8.864;2023-08-06T05:06:47;4.27;;;1.80;;
8327;SDS011;4201;48.754;8.864;2023-08-06T05:09:14;4.17;;;1.67;;
8327;SDS011;4201;48.754;8.864;2023-08-06T05:11:40;4.60;;;1.47;;
8327;SDS011;4201;48.754;8.864;2023-08-06T05:14:06;3.87;;;1.70;;
8327;SDS011;4201;48.754;8.864;2023-08-06T05:16:32;4.20;;;1.57;;
8327;SDS011;4201;48.754;8.864;2023-08-06T05:18:59;3.60;;;1.50;;
8327;SDS011;4201;48.754;8.864;2023-08-06T05:21:26;3.73;;;1.50;;
8327;SDS011;4201;48.754;8.864;2023-08-06T05:23:53;3.40;;;1.37;;
8327;SDS011;4201;48.754;8.864;2023-08-06T05:26:19;6.43;;;1.50;;
8327;SDS011;4201;48.754;8.864;2023-08-06T05:28:45;4.00;;;1.60;;
8327;SDS011;4201;48.754;8.864;2023-08-06T05:31:12;3.37;;;1.40;;
8327;SDS011;4201;48.754;8.864;2023-08-06T05:33:38;4.20;;;1.60;;
8327;SDS011;4201;48.754;8.864;2023-08-06T05:36:04;3.60;;;1.37;;
8327;SDS011;4201;48.754;8.864;2023-08-06T05:38:32;5.20;;;1.87;;
8327;SDS011;4201;48.754;8.864;2023-08-06T05:41:05;5.70;;;1.50;;
8327;SDS011;4201;48.754;8.864;2023-08-06T05:43:32;2.83;;;1.10;;
8327;SDS011;4201;48.754;8.864;2023-08-06T05:45:58;5.53;;;1.57;;
8327;SDS011;4201;48.754;8.864;2023-08-06T05:48:24;5.30;;;1.80;;
8327;SDS011;4201;48.754;8.864;2023-08-06T05:50:52;2.60;;;1.30;;
8327;SDS011;4201;48.754;8.864;2023-08-06T05:53:19;3.30;;;1.27;;
8327;SDS011;4201;48.754;8.864;2023-08-06T05:55:46;3.23;;;1.13;;
8327;SDS011;4201;48.754;8.864;2023-08-06T05:58:13;5.00;;;1.23;;
8327;SDS011;4201;48.754;8.864;2023-08-06T06:00:39;2.80;;;1.30;;
8327;SDS011;4201;48.754;8.864;2023-08-06T06:03:05;6.30;;;1.43;;
8327;SDS011;4201;48.754;8.864;2023-08-06T06:05:31;3.23;;;1.23;;
8327;SDS011;4201;48.754;8.864;2023-08-06T06:07:58;2.47;;;1.17;;
8327;SDS011;4201;48.754;8.864;2023-08-06T06:10:24;2.67;;;1.10;;
8327;SDS011;4201;48.754;8.864;2023-08-06T06:12:51;2.13;;;0.93;;
8327;SDS011;4201;48.754;8.864;2023-08-06T06:15:18;2.90;;;1.10;;
8327;SDS011;4201;48.754;8.864;2023-08-06T06:17:44;5.70;;;1.53;;
8327;SDS011;4201;48.754;8.864;2023-08-06T06:20:13;2.53;;;0.97;;
8327;SDS011;4201;48.754;8.864;2023-08-06T06:22:40;2.20;;;1.13;;
8327;SDS011;4201;48.754;8.864;2023-08-06T06:25:06;3.53;;;1.10;;
8327;SDS011;4201;48.754;8.864;2023-08-06T06:27:32;2.50;;;0.93;;
8327;SDS011;4201;48.754;8.864;2023-08-06T06:30:00;2.90;;;1.10;;
8327;SDS011;4201;48.754;8.864;2023-08-06T06:32:26;4.13;;;1.10;;
8327;SDS011;4201;48.754;8.864;2023-08-06T06:34:53;2.30;;;1.20;;
8327;SDS011;4201;48.754;8.864;2023-08-06T06:37:19;2.67;;;0.93;;
8327;SDS011;4201;48.754;8.864;2023-08-06T06:39:46;2.13;;;0.80;;
8327;SDS011;4201;48.754;8.864;2023-08-06T06:42:12;2.93;;;0.70;;
8327;SDS011;4201;48.754;8.864;2023-08-06T06:44:40;2.30;;;0.90;;
8327;SDS011;4201;48.754;8.864;2023-08-06T06:47:07;2.10;;;0.80;;
8327;SDS011;4201;48.754;8.864;2023-08-06T06:49:33;1.80;;;0.80;;
8327;SDS011;4201;48.754;8.864;2023-08-06T06:52:00;2.93;;;1.00;;
8327;SDS011;4201;48.754;8.864;2023-08-06T06:54:26;1.80;;;0.87;;
8327;SDS011;4201;48.754;8.864;2023-08-06T06:56:52;2.57;;;0.80;;
8327;SDS011;4201;48.754;8.864;2023-08-06T06:59:18;1.90;;;0.80;;
8327;SDS011;4201;48.754;8.864;2023-08-06T07:01:45;1.60;;;0.60;;
8327;SDS011;4201;48.754;8.864;2023-08-06T07:04:12;2.37;;;0.90;;
8327;SDS011;4201;48.754;8.864;2023-08-06T07:06:38;1.50;;;0.60;;
8327;SDS011;4201;48.754;8.864;2023-08-06T07:09:05;1.70;;;0.70;;
8327;SDS011;4201;48.754;8.864;2023-08-06T07:11:31;3.50;;;0.80;;
8327;SDS011;4201;48.754;8.864;2023-08-06T07:13:58;1.50;;;0.60;;
8327;SDS011;4201;48.754;8.864;2023-08-06T07:16:24;1.80;;;0.70;;
8327;SDS011;4201;48.754;8.864;2023-08-06T07:18:51;2.00;;;0.70;;
8327;SDS011;4201;48.754;8.864;2023-08-06T07:21:18;3.70;;;0.90;;
8327;SDS011;4201;48.754;8.864;2023-08-06T07:23:45;2.07;;;0.90;;
8327;SDS011;4201;48.754;8.864;2023-08-06T07:26:14;1.50;;;0.70;;
8327;SDS011;4201;48.754;8.864;2023-08-06T07:28:40;2.63;;;0.70;;
8327;SDS011;4201;48.754;8.864;2023-08-06T07:31:06;1.70;;;0.80;;
8327;SDS011;4201;48.754;8.864;2023-08-06T07:33:33;1.70;;;0.70;;
8327;SDS011;4201;48.754;8.864;2023-08-06T07:36:06;1.50;;;0.70;;
8327;SDS011;4201;48.754;8.864;2023-08-06T07:38:34;2.10;;;0.70;;
8327;SDS011;4201;48.754;8.864;2023-08-06T07:41:01;3.30;;;0.90;;
8327;SDS011;4201;48.754;8.864;2023-08-06T07:43:27;1.53;;;0.67;;
8327;SDS011;4201;48.754;8.864;2023-08-06T07:45:53;1.50;;;0.60;;
8327;SDS011;4201;48.754;8.864;2023-08-06T07:48:19;1.63;;;0.63;;
8327;SDS011;4201;48.754;8.864;2023-08-06T07:50:46;1.70;;;0.70;;
8327;SDS011;4201;48.754;8.864;2023-08-06T07:53:15;1.60;;;0.70;;
8327;SDS011;4201;48.754;8.864;2023-08-06T07:55:43;1.40;;;0.60;;
8327;SDS011;4201;48.754;8.864;2023-08-06T07:58:09;1.60;;;0.63;;
8327;SDS011;4201;48.754;8.864;2023-08-06T08:00:35;1.83;;;0.60;;
8327;SDS011;4201;48.754;8.864;2023-08-06T08:03:02;2.33;;;0.90;;
8327;SDS011;4201;48.754;8.864;2023-08-06T08:05:29;1.53;;;0.60;;
8327;SDS011;4201;48.754;8.864;2023-08-06T08:07:55;1.50;;;0.60;;
8327;SDS011;4201;48.754;8.864;2023-08-06T08:10:21;3.03;;;0.60;;
8327;SDS011;4201;48.754;8.864;2023-08-06T08:12:49;1.50;;;0.60;;
8327;SDS011;4201;48.754;8.864;2023-08-06T08:15:15;3.20;;;0.80;;
8327;SDS011;4201;48.754;8.864;2023-08-06T08:17:42;2.40;;;0.60;;
8327;SDS011;4201;48.754;8.864;2023-08-06T08:20:09;1.73;;;0.70;;
8327;SDS011;4201;48.754;8.864;2023-08-06T08:22:35;4.10;;;0.73;;
8327;SDS011;4201;48.754;8.864;2023-08-06T08:25:01;2.40;;;0.80;;
8327;SDS011;4201;48.754;8.864;2023-08-06T08:27:28;1.83;;;0.80;;
8327;SDS011;4201;48.754;8.864;2023-08-06T08:29:56;1.60;;;0.60;;
8327;SDS011;4201;48.754;8.864;2023-08-06T08:32:22;2.03;;;0.80;;
8327;SDS011;4201;48.754;8.864;2023-08-06T08:34:49;1.67;;;0.90;;
8327;SDS011;4201;48.754;8.864;2023-08-06T08:37:16;1.60;;;0.70;;
8327;SDS011;4201;48.754;8.864;2023-08-06T08:39:42;1.50;;;0.60;;
8327;SDS011;4201;48.754;8.864;2023-08-06T08:42:08;2.57;;;0.70;;
8327;SDS011;4201;48.754;8.864;2023-08-06T08:44:36;1.50;;;0.60;;
8327;SDS011;4201;48.754;8.864;2023-08-06T08:47:05;1.70;;;0.60;;
8327;SDS011;4201;48.754;8.864;2023-08-06T08:49:33;1.73;;;0.80;;
8327;SDS011;4201;48.754;8.864;2023-08-06T08:52:00;1.80;;;0.60;;
8327;SDS011;4201;48.754;8.864;2023-08-06T08:54:28;1.50;;;0.60;;
8327;SDS011;4201;48.754;8.864;2023-08-06T08:56:54;1.57;;;0.70;;
8327;SDS011;4201;48.754;8.864;2023-08-06T08:59:21;1.43;;;0.60;;
8327;SDS011;4201;48.754;8.864;2023-08-06T09:01:48;1.47;;;0.57;;
8327;SDS011;4201;48.754;8.864;2023-08-06T09:04:18;2.13;;;0.60;;
8327;SDS011;4201;48.754;8.864;2023-08-06T09:06:45;1.70;;;0.83;;
8327;SDS011;4201;48.754;8.864;2023-08-06T09:09:13;1.60;;;0.80;;
8327;SDS011;4201;48.754;8.864;2023-08-06T09:11:42;1.50;;;0.60;;
8327;SDS011;4201;48.754;8.864;2023-08-06T09:14:08;1.50;;;0.60;;
8327;SDS011;4201;48.754;8.864;2023-08-06T09:16:35;3.20;;;0.60;;
8327;SDS011;4201;48.754;8.864;2023-08-06T09:19:06;2.17;;;0.70;;
8327;SDS011;4201;48.754;8.864;2023-08-06T09:21:34;2.47;;;0.70;;
8327;SDS011;4201;48.754;8.864;2023-08-06T09:24:03;1.50;;;0.60;;
8327;SDS011;4201;48.754;8.864;2023-08-06T09:26:32;1.60;;;0.70;;
8327;SDS011;4201;48.754;8.864;2023-08-06T09:28:59;2.07;;;0.70;;
8327;SDS011;4201;48.754;8.864;2023-08-06T09:31:25;1.40;;;0.60;;
8327;SDS011;4201;48.754;8.864;2023-08-06T09:33:59;2.90;;;0.70;;
8327;SDS011;4201;48.754;8.864;2023-08-06T09:36:25;2.30;;;0.80;;
8327;SDS011;4201;48.754;8.864;2023-08-06T09:38:54;1.90;;;0.60;;
8327;SDS011;4201;48.754;8.864;2023-08-06T09:41:26;1.87;;;0.60;;
8327;SDS011;4201;48.754;8.864;2023-08-06T09:43:52;1.50;;;0.60;;
8327;SDS011;4201;48.754;8.864;2023-08-06T09:46:18;1.60;;;0.60;;
8327;SDS011;4201;48.754;8.864;2023-08-06T09:48:47;1.50;;;0.60;;
8327;SDS011;4201;48.754;8.864;2023-08-06T09:51:13;2.27;;;0.87;;
8327;SDS011;4201;48.754;8.864;2023-08-06T09:53:40;1.47;;;0.60;;
8327;SDS011;4201;48.754;8.864;2023-08-06T09:56:08;2.03;;;0.90;;
8327;SDS011;4201;48.754;8.864;2023-08-06T09:58:35;1.70;;;0.80;;
8327;SDS011;4201;48.754;8.864;2023-08-06T10:01:02;1.90;;;0.80;;
8327;SDS011;4201;48.754;8.864;2023-08-06T10:03:30;1.60;;;0.60;;
8327;SDS011;4201;48.754;8.864;2023-08-06T10:05:56;1.60;;;0.60;;
8327;SDS011;4201;48.754;8.864;2023-08-06T10:08:23;2.47;;;0.70;;
8327;SDS011;4201;48.754;8.864;2023-08-06T10:10:49;1.70;;;0.70;;
8327;SDS011;4201;48.754;8.864;2023-08-06T10:13:17;1.50;;;0.60;;
8327;SDS011;4201;48.754;8.864;2023-08-06T10:15:44;1.80;;;0.60;;
8327;SDS011;4201;48.754;8.864;2023-08-06T10:18:11;1.60;;;0.60;;
8327;SDS011;4201;48.754;8.864;2023-08-06T10:20:38;1.70;;;0.60;;
8327;SDS011;4201;48.754;8.864;2023-08-06T10:23:05;2.00;;;0.60;;
8327;SDS011;4201;48.754;8.864;2023-08-06T10:25:33;2.80;;;0.70;;
8327;SDS011;4201;48.754;8.864;2023-08-06T10:27:59;1.60;;;0.60;;
8327;SDS011;4201;48.754;8.864;2023-08-06T10:30:28;1.50;;;0.70;;
8327;SDS011;4201;48.754;8.864;2023-08-06T10:32:55;1.70;;;0.77;;
8327;SDS011;4201;48.754;8.864;2023-08-06T10:35:33;1.50;;;0.60;;
8327;SDS011;4201;48.754;8.864;2023-08-06T10:38:04;1.57;;;0.60;;
8327;SDS011;4201;48.754;8.864;2023-08-06T10:40:30;2.33;;;0.70;;
8327;SDS011;4201;48.754;8.864;2023-08-06T10:42:58;1.90;;;0.60;;
8327;SDS011;4201;48.754;8.864;2023-08-06T10:45:24;1.70;;;0.60;;
8327;SDS011;4201;48.754;8.864;2023-08-06T10:47:55;2.63;;;0.93;;
8327;SDS011;4201;48.754;8.864;2023-08-06T10:50:22;2.17;;;0.80;;
8327;SDS011;4201;48.754;8.864;2023-08-06T10:52:48;3.60;;;0.70;;
8327;SDS011;4201;48.754;8.864;2023-08-06T10:55:21;2.00;;;0.90;;
8327;SDS011;4201;48.754;8.864;2023-08-06T10:57:48;1.60;;;0.70;;
8327;SDS011;4201;48.754;8.864;2023-08-06T11:00:14;1.60;;;0.63;;
8327;SDS011;4201;48.754;8.864;2023-08-06T11:02:41;1.93;;;0.80;;
8327;SDS011;4201;48.754;8.864;2023-08-06T11:05:09;1.60;;;0.70;;
8327;SDS011;4201;48.754;8.864;2023-08-06T11:07:36;1.60;;;0.67;;
8327;SDS011;4201;48.754;8.864;2023-08-06T11:10:03;2.37;;;0.70;;
8327;SDS011;4201;48.754;8.864;2023-08-06T11:12:29;2.07;;;0.83;;
8327;SDS011;4201;48.754;8.864;2023-08-06T11:14:55;1.53;;;0.67;;
8327;SDS011;4201;48.754;8.864;2023-08-06T11:17:22;2.50;;;1.13;;
8327;SDS011;4201;48.754;8.864;2023-08-06T11:19:48;2.20;;;1.27;;
8327;SDS011;4201;48.754;8.864;2023-08-06T11:22:16;2.23;;;1.30;;
8327;SDS011;4201;48.754;8.864;2023-08-06T11:24:43;2.00;;;0.90;;
8327;SDS011;4201;48.754;8.864;2023-08-06T11:27:12;2.20;;;1.13;;
8327;SDS011;4201;48.754;8.864;2023-08-06T11:29:40;2.13;;;1.20;;
8327;SDS011;4201;48.754;8.864;2023-08-06T11:32:06;1.87;;;1.00;;
8327;SDS011;4201;48.754;8.864;2023-08-06T11:34:32;3.50;;;1.27;;
8327;SDS011;4201;48.754;8.864;2023-08-06T11:36:59;2.70;;;1.30;;
8327;SDS011;4201;48.754;8.864;2023-08-06T11:39:26;2.87;;;1.57;;
8327;SDS011;4201;48.754;8.864;2023-08-06T11:41:53;4.57;;;2.00;;
8327;SDS011;4201;48.754;8.864;2023-08-06T11:44:19;3.40;;;2.20;;
8327;SDS011;4201;48.754;8.864;2023-08-06T11:46:50;3.80;;;1.80;;
8327;SDS011;4201;48.754;8.864;2023-08-06T11:49:18;2.83;;;1.27;;
8327;SDS011;4201;48.754;8.864;2023-08-06T11:51:46;3.83;;;1.70;;
8327;SDS011;4201;48.754;8.864;2023-08-06T11:54:12;4.90;;;1.60;;
8327;SDS011;4201;48.754;8.864;2023-08-06T11:56:40;2.73;;;1.30;;
8327;SDS011;4201;48.754;8.864;2023-08-06T11:59:06;2.60;;;1.40;;
8327;SDS011;4201;48.754;8.864;2023-08-06T12:01:32;4.43;;;2.97;;
8327;SDS011;4201;48.754;8.864;2023-08-06T12:03:59;3.50;;;1.70;;
8327;SDS011;4201;48.754;8.864;2023-08-06T12:06:26;2.87;;;1.80;;
8327;SDS011;4201;48.754;8.864;2023-08-06T12:08:52;3.77;;;1.67;;
8327;SDS011;4201;48.754;8.864;2023-08-06T12:11:20;4.33;;;1.67;;
8327;SDS011;4201;48.754;8.864;2023-08-06T12:13:51;3.67;;;1.83;;
8327;SDS011;4201;48.754;8.864;2023-08-06T12:16:17;5.60;;;2.10;;
8327;SDS011;4201;48.754;8.864;2023-08-06T12:18:46;3.57;;;2.20;;
8327;SDS011;4201;48.754;8.864;2023-08-06T12:21:13;3.30;;;1.70;;
8327;SDS011;4201;48.754;8.864;2023-08-06T12:23:40;2.40;;;1.30;;
8327;SDS011;4201;48.754;8.864;2023-08-06T12:26:07;3.50;;;1.80;;
8327;SDS011;4201;48.754;8.864;2023-08-06T12:28:33;2.70;;;1.60;;
8327;SDS011;4201;48.754;8.864;2023-08-06T12:31:00;2.70;;;1.47;;
8327;SDS011;4201;48.754;8.864;2023-08-06T12:33:27;3.70;;;1.33;;
8327;SDS011;4201;48.754;8.864;2023-08-06T12:35:53;2.47;;;1.40;;
8327;SDS011;4201;48.754;8.864;2023-08-06T12:38:20;2.43;;;1.30;;
8327;SDS011;4201;48.754;8.864;2023-08-06T12:40:46;3.17;;;1.70;;
8327;SDS011;4201;48.754;8.864;2023-08-06T12:43:12;3.23;;;1.87;;
8327;SDS011;4201;48.754;8.864;2023-08-06T12:45:39;2.80;;;1.20;;
8327;SDS011;4201;48.754;8.864;2023-08-06T12:48:06;2.40;;;1.30;;
8327;SDS011;4201;48.754;8.864;2023-08-06T12:50:33;2.67;;;1.43;;
8327;SDS011;4201;48.754;8.864;2023-08-06T12:52:59;3.30;;;1.73;;
8327;SDS011;4201;48.754;8.864;2023-08-06T12:55:26;4.13;;;1.70;;
8327;SDS011;4201;48.754;8.864;2023-08-06T12:57:52;4.33;;;1.83;;
8327;SDS011;4201;48.754;8.864;2023-08-06T13:00:18;4.70;;;1.60;;
8327;SDS011;4201;48.754;8.864;2023-08-06T13:02:44;3.20;;;1.70;;
8327;SDS011;4201;48.754;8.864;2023-08-06T13:05:12;2.87;;;1.40;;
8327;SDS011;4201;48.754;8.864;2023-08-06T13:07:38;3.37;;;1.43;;
8327;SDS011;4201;48.754;8.864;2023-08-06T13:10:05;2.87;;;1.43;;
8327;SDS011;4201;48.754;8.864;2023-08-06T13:12:31;3.23;;;1.50;;
8327;SDS011;4201;48.754;8.864;2023-08-06T13:14:58;2.43;;;1.20;;
8327;SDS011;4201;48.754;8.864;2023-08-06T13:17:24;6.37;;;1.40;;
8327;SDS011;4201;48.754;8.864;2023-08-06T13:19:51;4.17;;;1.47;;
8327;SDS011;4201;48.754;8.864;2023-08-06T13:22:18;2.60;;;1.07;;
8327;SDS011;4201;48.754;8.864;2023-08-06T13:24:44;3.20;;;1.20;;
8327;SDS011;4201;48.754;8.864;2023-08-06T13:27:11;2.53;;;1.17;;
8327;SDS011;4201;48.754;8.864;2023-08-06T13:29:37;2.20;;;1.00;;
8327;SDS011;4201;48.754;8.864;2023-08-06T13:32:03;3.20;;;1.17;;
8327;SDS011;4201;48.754;8.864;2023-08-06T13:34:30;3.10;;;1.00;;
8327;SDS011;4201;48.754;8.864;2023-08-06T13:36:56;2.60;;;1.13;;
8327;SDS011;4201;48.754;8.864;2023-08-06T13:39:24;7.73;;;1.10;;
8327;SDS011;4201;48.754;8.864;2023-08-06T13:41:50;3.80;;;1.50;;
8327;SDS011;4201;48.754;8.864;2023-08-06T13:44:16;2.10;;;1.00;;
8327;SDS011;4201;48.754;8.864;2023-08-06T13:46:42;4.33;;;1.17;;
8327;SDS011;4201;48.754;8.864;2023-08-06T13:49:09;2.50;;;1.27;;
8327;SDS011;4201;48.754;8.864;2023-08-06T13:51:35;2.97;;;1.83;;
8327;SDS011;4201;48.754;8.864;2023-08-06T13:54:02;3.70;;;1.20;;
8327;SDS011;4201;48.754;8.864;2023-08-06T13:56:29;2.07;;;1.00;;
8327;SDS011;4201;48.754;8.864;2023-08-06T13:58:56;2.93;;;0.93;;
8327;SDS011;4201;48.754;8.864;2023-08-06T14:01:22;3.40;;;1.37;;
8327;SDS011;4201;48.754;8.864;2023-08-06T14:03:48;2.70;;;1.13;;
8327;SDS011;4201;48.754;8.864;2023-08-06T14:06:28;2.17;;;1.10;;
8327;SDS011;4201;48.754;8.864;2023-08-06T14:08:55;2.90;;;1.10;;
8327;SDS011;4201;48.754;8.864;2023-08-06T14:11:21;2.10;;;1.17;;
8327;SDS011;4201;48.754;8.864;2023-08-06T14:13:49;2.57;;;1.20;;
8327;SDS011;4201;48.754;8.864;2023-08-06T14:16:15;1.90;;;1.13;;
8327;SDS011;4201;48.754;8.864;2023-08-06T14:18:41;2.43;;;1.10;;
8327;SDS011;4201;48.754;8.864;2023-08-06T14:21:07;2.73;;;1.07;;
8327;SDS011;4201;48.754;8.864;2023-08-06T14:23:34;2.90;;;1.37;;
8327;SDS011;4201;48.754;8.864;2023-08-06T14:26:00;2.40;;;1.00;;
8327;SDS011;4201;48.754;8.864;2023-08-06T14:28:27;3.00;;;1.10;;
8327;SDS011;4201;48.754;8.864;2023-08-06T14:30:54;2.30;;;1.20;;
8327;SDS011;4201;48.754;8.864;2023-08-06T14:33:20;2.70;;;1.10;;
8327;SDS011;4201;48.754;8.864;2023-08-06T14:35:47;2.40;;;1.03;;
8327;SDS011;4201;48.754;8.864;2023-08-06T14:38:13;4.90;;;1.20;;
8327;SDS011;4201;48.754;8.864;2023-08-06T14:40:39;2.37;;;1.20;;
8327;SDS011;4201;48.754;8.864;2023-08-06T14:43:05;3.20;;;1.50;;
8327;SDS011;4201;48.754;8.864;2023-08-06T14:45:32;4.03;;;1.60;;
8327;SDS011;4201;48.754;8.864;2023-08-06T14:47:59;5.20;;;1.20;;
8327;SDS011;4201;48.754;8.864;2023-08-06T14:50:25;6.33;;;1.70;;
8327;SDS011;4201;48.754;8.864;2023-08-06T14:52:52;3.10;;;1.20;;
8327;SDS011;4201;48.754;8.864;2023-08-06T14:55:23;2.37;;;1.20;;
8327;SDS011;4201;48.754;8.864;2023-08-06T14:57:49;2.83;;;1.20;;
8327;SDS011;4201;48.754;8.864;2023-08-06T15:00:16;2.00;;;1.00;;
8327;SDS011;4201;48.754;8.864;2023-08-06T15:02:42;2.30;;;1.23;;
8327;SDS011;4201;48.754;8.864;2023-08-06T15:05:10;3.30;;;1.10;;
8327;SDS011;4201;48.754;8.864;2023-08-06T15:07:36;2.17;;;1.20;;
8327;SDS011;4201;48.754;8.864;2023-08-06T15:10:03;2.30;;;1.00;;
8327;SDS011;4201;48.754;8.864;2023-08-06T15:12:30;2.73;;;1.80;;